sensor_id;sensor_type;location;lat;lon;timestamp;pressure;altitude;pressure_sealevel;temperature;humidity
21395;BME280;10858;42.714;23.180;2023-03-25T00:01:34;94114.66;;;7.47;80.79
21395;BME280;10858;42.714;23.180;2023-03-25T00:04:02;94114.56;;;7.16;81.88
21395;BME280;10858;42.714;23.180;2023-03-25T00:06:30;94118.56;;;7.21;81.77
21395;BME280;10858;42.714;23.180;2023-03-25T00:08:57;94124.41;;;7.25;81.34
21395;BME280;10858;42.714;23.180;2023-03-25T00:11:23;94122.16;;;6.87;82.40
21395;BME280;10858;42.714;23.180;2023-03-25T00:13:49;94115.06;;;6.87;82.99
21395;BME280;10858;42.714;23.180;2023-03-25T00:16:16;94104.88;;;7.16;82.06
21395;BME280;10858;42.714;23.180;2023-03-25T00:18:44;94110.03;;;7.07;81.78
21395;BME280;10858;42.714;23.180;2023-03-25T00:21:13;94107.88;;;7.23;81.92
21395;BME280;10858;42.714;23.180;2023-03-25T00:23:40;94109.91;;;6.86;82.51
21395;BME280;10858;42.714;23.180;2023-03-25T00:26:07;94098.03;;;6.92;82.69
21395;BME280;10858;42.714;23.180;2023-03-25T00:28:35;94104.03;;;6.71;82.18
21395;BME280;10858;42.714;23.180;2023-03-25T00:31:05;94102.34;;;6.59;82.25
21395;BME280;10858;42.714;23.180;2023-03-25T00:33:31;94097.69;;;6.52;83.69
21395;BME280;10858;42.714;23.180;2023-03-25T00:35:58;94105.72;;;6.72;82.86
21395;BME280;10858;42.714;23.180;2023-03-25T00:38:29;94103.94;;;6.73;83.00
21395;BME280;10858;42.714;23.180;2023-03-25T00:43:34;94103.56;;;6.88;82.17
21395;BME280;10858;42.714;23.180;2023-03-25T00:46:00;94096.84;;;6.51;83.15
21395;BME280;10858;42.714;23.180;2023-03-25T00:48:26;94091.09;;;6.79;82.25
21395;BME280;10858;42.714;23.180;2023-03-25T00:50:53;94088.22;;;6.71;83.35
21395;BME280;10858;42.714;23.180;2023-03-25T00:53:19;94084.41;;;6.64;83.27
21395;BME280;10858;42.714;23.180;2023-03-25T00:55:45;94090.75;;;6.73;82.42
21395;BME280;10858;42.714;23.180;2023-03-25T00:58:11;94082.00;;;6.50;83.23
21395;BME280;10858;42.714;23.180;2023-03-25T01:00:37;94086.53;;;6.48;83.05
21395;BME280;10858;42.714;23.180;2023-03-25T01:03:03;94076.31;;;6.22;84.11
21395;BME280;10858;42.714;23.180;2023-03-25T01:05:30;94076.13;;;6.58;84.16
21395;BME280;10858;42.714;23.180;2023-03-25T01:07:56;94074.31;;;6.69;83.81
21395;BME280;10858;42.714;23.180;2023-03-25T01:10:22;94070.75;;;6.93;83.39
21395;BME280;10858;42.714;23.180;2023-03-25T01:12:48;94073.38;;;6.93;83.19
21395;BME280;10858;42.714;23.180;2023-03-25T01:15:15;94070.16;;;6.67;83.11
21395;BME280;10858;42.714;23.180;2023-03-25T01:17:41;94067.63;;;6.76;82.75
21395;BME280;10858;42.714;23.180;2023-03-25T01:20:08;94057.56;;;6.70;82.56
21395;BME280;10858;42.714;23.180;2023-03-25T01:22:34;94051.56;;;6.79;82.73
21395;BME280;10858;42.714;23.180;2023-03-25T01:25:01;94054.94;;;6.70;82.29
21395;BME280;10858;42.714;23.180;2023-03-25T01:27:27;94058.72;;;6.22;83.18
21395;BME280;10858;42.714;23.180;2023-03-25T01:29:55;94048.19;;;6.11;84.12
21395;BME280;10858;42.714;23.180;2023-03-25T01:32:21;94037.91;;;6.30;84.24
21395;BME280;10858;42.714;23.180;2023-03-25T01:34:47;94039.59;;;6.42;84.17
21395;BME280;10858;42.714;23.180;2023-03-25T01:37:14;94033.97;;;6.69;83.39
21395;BME280;10858;42.714;23.180;2023-03-25T01:39:40;94030.00;;;6.63;83.59
21395;BME280;10858;42.714;23.180;2023-03-25T01:42:08;94038.41;;;6.68;82.47
21395;BME280;10858;42.714;23.180;2023-03-25T01:47:06;94040.19;;;6.35;83.33
21395;BME280;10858;42.714;23.180;2023-03-25T01:49:39;94033.38;;;6.54;82.54
21395;BME280;10858;42.714;23.180;2023-03-25T01:54:39;94031.22;;;6.48;82.73
21395;BME280;10858;42.714;23.180;2023-03-25T01:57:08;94033.75;;;6.39;83.13
21395;BME280;10858;42.714;23.180;2023-03-25T01:59:36;94025.84;;;6.61;82.68
21395;BME280;10858;42.714;23.180;2023-03-25T02:02:05;94030.97;;;6.62;81.92
21395;BME280;10858;42.714;23.180;2023-03-25T02:07:08;94037.19;;;6.17;83.61
21395;BME280;10858;42.714;23.180;2023-03-25T02:09:36;94030.47;;;6.24;83.27
21395;BME280;10858;42.714;23.180;2023-03-25T02:12:03;94024.28;;;6.36;83.01
21395;BME280;10858;42.714;23.180;2023-03-25T02:14:32;94022.84;;;6.21;83.85
21395;BME280;10858;42.714;23.180;2023-03-25T02:20:23;94017.44;;;6.67;82.70
21395;BME280;10858;42.714;23.180;2023-03-25T02:25:50;94007.38;;;6.72;82.32
21395;BME280;10858;42.714;23.180;2023-03-25T02:40:09;94001.47;;;6.79;82.60
21395;BME280;10858;42.714;23.180;2023-03-25T02:42:59;94011.22;;;6.35;82.90
21395;BME280;10858;42.714;23.180;2023-03-25T02:45:31;93999.34;;;6.51;82.73
21395;BME280;10858;42.714;23.180;2023-03-25T02:48:04;94001.28;;;6.27;82.88
21395;BME280;10858;42.714;23.180;2023-03-25T02:50:42;94008.34;;;6.27;83.01
21395;BME280;10858;42.714;23.180;2023-03-25T02:53:16;94004.16;;;6.13;83.34
21395;BME280;10858;42.714;23.180;2023-03-25T02:55:46;93994.69;;;6.22;83.27
21395;BME280;10858;42.714;23.180;2023-03-25T02:58:15;93988.34;;;6.46;82.80
21395;BME280;10858;42.714;23.180;2023-03-25T03:00:43;93983.56;;;6.40;82.94
21395;BME280;10858;42.714;23.180;2023-03-25T03:03:09;93989.31;;;6.56;82.11
21395;BME280;10858;42.714;23.180;2023-03-25T03:05:41;93983.34;;;6.43;82.62
21395;BME280;10858;42.714;23.180;2023-03-25T03:10:48;94000.56;;;6.25;83.23
21395;BME280;10858;42.714;23.180;2023-03-25T03:16:08;94003.31;;;6.35;82.92
21395;BME280;10858;42.714;23.180;2023-03-25T03:19:16;93997.69;;;6.28;83.39
21395;BME280;10858;42.714;23.180;2023-03-25T03:21:49;93987.13;;;6.61;82.48
21395;BME280;10858;42.714;23.180;2023-03-25T03:24:45;93990.13;;;6.46;83.32
21395;BME280;10858;42.714;23.180;2023-03-25T03:27:27;93990.25;;;6.66;81.87
21395;BME280;10858;42.714;23.180;2023-03-25T03:33:10;93992.66;;;6.36;82.33
21395;BME280;10858;42.714;23.180;2023-03-25T03:35:51;94005.69;;;6.05;83.77
21395;BME280;10858;42.714;23.180;2023-03-25T03:38:25;94005.59;;;6.17;83.25
21395;BME280;10858;42.714;23.180;2023-03-25T03:40:55;93999.59;;;5.93;83.78
21395;BME280;10858;42.714;23.180;2023-03-25T03:43:30;93999.63;;;6.15;83.13
21395;BME280;10858;42.714;23.180;2023-03-25T03:46:01;94002.78;;;5.85;83.15
21395;BME280;10858;42.714;23.180;2023-03-25T03:48:37;94003.63;;;5.86;84.52
21395;BME280;10858;42.714;23.180;2023-03-25T03:51:19;94010.13;;;6.15;83.71
21395;BME280;10858;42.714;23.180;2023-03-25T03:53:58;94009.31;;;5.80;82.82
21395;BME280;10858;42.714;23.180;2023-03-25T03:56:49;94006.75;;;5.56;83.73
21395;BME280;10858;42.714;23.180;2023-03-25T04:02:03;94007.28;;;5.72;84.12
21395;BME280;10858;42.714;23.180;2023-03-25T04:04:33;93994.06;;;5.96;83.52
21395;BME280;10858;42.714;23.180;2023-03-25T04:07:16;93999.59;;;6.04;83.31
21395;BME280;10858;42.714;23.180;2023-03-25T04:12:44;93990.72;;;5.94;83.83
21395;BME280;10858;42.714;23.180;2023-03-25T04:15:14;93995.44;;;5.78;83.63
21395;BME280;10858;42.714;23.180;2023-03-25T04:17:40;93995.31;;;5.68;83.64
21395;BME280;10858;42.714;23.180;2023-03-25T04:20:09;93996.16;;;5.69;84.16
21395;BME280;10858;42.714;23.180;2023-03-25T04:22:38;93997.66;;;5.60;84.31
21395;BME280;10858;42.714;23.180;2023-03-25T04:25:07;94002.34;;;5.57;83.98
21395;BME280;10858;42.714;23.180;2023-03-25T04:27:34;94002.34;;;5.57;84.16
21395;BME280;10858;42.714;23.180;2023-03-25T04:30:03;94016.22;;;5.59;84.26
21395;BME280;10858;42.714;23.180;2023-03-25T04:32:30;94004.06;;;5.80;84.32
21395;BME280;10858;42.714;23.180;2023-03-25T04:34:56;94007.59;;;5.68;85.09
21395;BME280;10858;42.714;23.180;2023-03-25T04:37:27;94001.50;;;5.91;86.02
21395;BME280;10858;42.714;23.180;2023-03-25T04:39:53;94004.41;;;6.21;84.52
21395;BME280;10858;42.714;23.180;2023-03-25T04:42:21;94008.34;;;6.27;84.84
21395;BME280;10858;42.714;23.180;2023-03-25T04:44:51;94005.09;;;6.78;83.25
21395;BME280;10858;42.714;23.180;2023-03-25T04:47:22;94010.38;;;6.56;83.53
21395;BME280;10858;42.714;23.180;2023-03-25T04:49:49;94001.66;;;7.10;82.51
21395;BME280;10858;42.714;23.180;2023-03-25T04:52:15;94009.69;;;7.08;82.33
21395;BME280;10858;42.714;23.180;2023-03-25T04:54:42;94002.69;;;7.29;82.62
21395;BME280;10858;42.714;23.180;2023-03-25T04:57:09;94004.25;;;7.63;85.37
21395;BME280;10858;42.714;23.180;2023-03-25T04:59:36;94004.63;;;7.80;82.80
21395;BME280;10858;42.714;23.180;2023-03-25T05:02:03;94005.72;;;8.18;80.99
21395;BME280;10858;42.714;23.180;2023-03-25T05:04:31;94008.25;;;7.99;79.72
21395;BME280;10858;42.714;23.180;2023-03-25T05:06:58;94010.16;;;7.77;80.08
21395;BME280;10858;42.714;23.180;2023-03-25T05:09:24;94012.69;;;7.99;79.54
21395;BME280;10858;42.714;23.180;2023-03-25T05:11:52;94008.75;;;8.14;79.17
21395;BME280;10858;42.714;23.180;2023-03-25T05:14:20;94015.03;;;8.33;78.59
21395;BME280;10858;42.714;23.180;2023-03-25T05:16:47;94008.19;;;8.61;78.55
21395;BME280;10858;42.714;23.180;2023-03-25T05:19:14;94011.06;;;9.37;76.87
21395;BME280;10858;42.714;23.180;2023-03-25T05:21:40;94004.13;;;9.75;75.12
21395;BME280;10858;42.714;23.180;2023-03-25T05:24:11;94006.06;;;10.01;74.12
21395;BME280;10858;42.714;23.180;2023-03-25T05:26:39;94001.00;;;11.37;71.22
21395;BME280;10858;42.714;23.180;2023-03-25T05:29:10;94004.81;;;13.25;68.80
21395;BME280;10858;42.714;23.180;2023-03-25T05:31:41;94004.19;;;15.41;60.26
21395;BME280;10858;42.714;23.180;2023-03-25T05:34:07;94013.97;;;15.95;55.63
21395;BME280;10858;42.714;23.180;2023-03-25T05:36:34;94010.47;;;16.99;55.88
21395;BME280;10858;42.714;23.180;2023-03-25T05:39:00;94007.34;;;18.19;50.58
21395;BME280;10858;42.714;23.180;2023-03-25T05:41:28;94012.59;;;18.27;47.64
21395;BME280;10858;42.714;23.180;2023-03-25T05:43:59;94010.34;;;19.43;44.10
21395;BME280;10858;42.714;23.180;2023-03-25T05:46:26;94010.28;;;20.18;47.22
21395;BME280;10858;42.714;23.180;2023-03-25T05:48:54;94015.44;;;21.45;42.83
21395;BME280;10858;42.714;23.180;2023-03-25T05:51:24;94014.19;;;21.54;39.05
21395;BME280;10858;42.714;23.180;2023-03-25T05:53:50;94013.38;;;21.34;39.16
21395;BME280;10858;42.714;23.180;2023-03-25T05:56:18;94010.47;;;21.23;39.15
21395;BME280;10858;42.714;23.180;2023-03-25T05:58:48;94008.97;;;21.53;38.75
21395;BME280;10858;42.714;23.180;2023-03-25T06:01:16;94002.63;;;22.49;37.59
21395;BME280;10858;42.714;23.180;2023-03-25T06:03:43;94001.38;;;24.06;35.75
21395;BME280;10858;42.714;23.180;2023-03-25T06:06:11;94001.81;;;24.69;33.74
21395;BME280;10858;42.714;23.180;2023-03-25T06:08:47;94005.78;;;22.83;35.37
21395;BME280;10858;42.714;23.180;2023-03-25T06:11:16;93997.81;;;22.13;36.69
21395;BME280;10858;42.714;23.180;2023-03-25T06:13:45;93997.81;;;21.16;38.00
21395;BME280;10858;42.714;23.180;2023-03-25T06:16:19;94002.94;;;20.59;39.79
21395;BME280;10858;42.714;23.180;2023-03-25T06:18:47;93998.00;;;20.89;38.68
21395;BME280;10858;42.714;23.180;2023-03-25T06:21:22;94000.31;;;21.44;38.06
21395;BME280;10858;42.714;23.180;2023-03-25T06:23:48;94007.88;;;20.43;39.35
21395;BME280;10858;42.714;23.180;2023-03-25T06:26:15;94003.00;;;20.92;40.00
21395;BME280;10858;42.714;23.180;2023-03-25T06:28:42;94005.63;;;21.90;38.34
21395;BME280;10858;42.714;23.180;2023-03-25T06:31:13;94002.28;;;21.88;38.78
21395;BME280;10858;42.714;23.180;2023-03-25T06:33:43;94001.53;;;20.96;38.53
21395;BME280;10858;42.714;23.180;2023-03-25T06:36:10;94004.97;;;20.38;39.87
21395;BME280;10858;42.714;23.180;2023-03-25T06:38:37;94005.63;;;20.53;41.39
21395;BME280;10858;42.714;23.180;2023-03-25T06:41:04;94009.59;;;20.70;39.86
21395;BME280;10858;42.714;23.180;2023-03-25T06:43:32;94007.94;;;20.56;40.04
21395;BME280;10858;42.714;23.180;2023-03-25T06:45:59;94008.59;;;20.97;39.50
21395;BME280;10858;42.714;23.180;2023-03-25T06:48:25;94015.28;;;21.14;40.22
21395;BME280;10858;42.714;23.180;2023-03-25T06:50:52;94013.13;;;21.55;39.04
21395;BME280;10858;42.714;23.180;2023-03-25T06:53:18;94013.34;;;21.60;37.68
21395;BME280;10858;42.714;23.180;2023-03-25T06:55:45;94020.91;;;22.02;38.28
21395;BME280;10858;42.714;23.180;2023-03-25T06:58:11;94023.25;;;21.92;37.08
21395;BME280;10858;42.714;23.180;2023-03-25T07:00:38;94021.53;;;22.62;37.30
21395;BME280;10858;42.714;23.180;2023-03-25T07:03:04;94021.03;;;22.34;36.47
21395;BME280;10858;42.714;23.180;2023-03-25T07:05:30;94026.91;;;23.00;35.57
21395;BME280;10858;42.714;23.180;2023-03-25T07:07:57;94013.44;;;23.67;33.82
21395;BME280;10858;42.714;23.180;2023-03-25T07:10:24;94020.88;;;23.72;34.23
21395;BME280;10858;42.714;23.180;2023-03-25T07:12:50;94015.75;;;24.06;33.94
21395;BME280;10858;42.714;23.180;2023-03-25T07:15:16;94023.22;;;24.11;32.98
21395;BME280;10858;42.714;23.180;2023-03-25T07:17:43;94017.84;;;24.88;32.30
21395;BME280;10858;42.714;23.180;2023-03-25T07:20:09;94015.69;;;24.31;33.12
21395;BME280;10858;42.714;23.180;2023-03-25T07:22:36;94024.47;;;24.44;34.98
21395;BME280;10858;42.714;23.180;2023-03-25T07:25:02;94013.19;;;25.71;31.79
21395;BME280;10858;42.714;23.180;2023-03-25T07:27:28;94015.75;;;26.24;30.26
21395;BME280;10858;42.714;23.180;2023-03-25T07:29:55;94017.06;;;26.33;30.43
21395;BME280;10858;42.714;23.180;2023-03-25T07:32:21;94015.50;;;26.37;29.63
21395;BME280;10858;42.714;23.180;2023-03-25T07:34:47;94001.84;;;25.74;30.32
21395;BME280;10858;42.714;23.180;2023-03-25T07:37:13;94006.72;;;26.47;29.88
21395;BME280;10858;42.714;23.180;2023-03-25T07:39:40;94008.19;;;26.66;31.58
21395;BME280;10858;42.714;23.180;2023-03-25T07:42:06;93996.97;;;26.23;30.61
21395;BME280;10858;42.714;23.180;2023-03-25T07:44:33;93998.22;;;26.43;30.69
21395;BME280;10858;42.714;23.180;2023-03-25T07:46:59;93990.38;;;26.86;31.52
21395;BME280;10858;42.714;23.180;2023-03-25T07:49:25;93985.13;;;26.29;30.34
21395;BME280;10858;42.714;23.180;2023-03-25T07:51:51;93986.66;;;25.32;32.64
21395;BME280;10858;42.714;23.180;2023-03-25T07:54:18;93977.31;;;25.16;32.58
21395;BME280;10858;42.714;23.180;2023-03-25T07:56:47;93982.28;;;26.35;30.96
21395;BME280;10858;42.714;23.180;2023-03-25T07:59:13;93983.56;;;27.01;30.72
21395;BME280;10858;42.714;23.180;2023-03-25T08:01:39;93971.66;;;27.35;29.65
21395;BME280;10858;42.714;23.180;2023-03-25T08:04:06;93963.00;;;27.10;31.02
21395;BME280;10858;42.714;23.180;2023-03-25T08:06:32;93965.28;;;26.05;30.47
21395;BME280;10858;42.714;23.180;2023-03-25T08:08:58;93966.13;;;24.83;32.73
21395;BME280;10858;42.714;23.180;2023-03-25T08:11:24;93964.69;;;25.22;33.75
21395;BME280;10858;42.714;23.180;2023-03-25T08:13:50;93960.84;;;25.53;33.02
21395;BME280;10858;42.714;23.180;2023-03-25T08:16:17;93961.72;;;26.16;32.04
21395;BME280;10858;42.714;23.180;2023-03-25T08:18:43;93951.59;;;25.88;31.13
21395;BME280;10858;42.714;23.180;2023-03-25T08:21:11;93959.31;;;25.57;31.71
21395;BME280;10858;42.714;23.180;2023-03-25T08:23:37;93961.56;;;24.95;32.34
21395;BME280;10858;42.714;23.180;2023-03-25T08:26:04;93964.09;;;24.19;35.55
21395;BME280;10858;42.714;23.180;2023-03-25T08:28:31;93959.59;;;25.02;33.88
21395;BME280;10858;42.714;23.180;2023-03-25T08:30:57;93949.25;;;24.81;33.07
21395;BME280;10858;42.714;23.180;2023-03-25T08:33:27;93958.22;;;23.86;35.49
21395;BME280;10858;42.714;23.180;2023-03-25T08:36:00;93946.25;;;24.12;35.03
21395;BME280;10858;42.714;23.180;2023-03-25T08:38:27;93946.88;;;24.73;33.73
21395;BME280;10858;42.714;23.180;2023-03-25T08:40:59;93942.88;;;24.46;34.20
21395;BME280;10858;42.714;23.180;2023-03-25T08:43:26;93945.78;;;25.04;35.02
21395;BME280;10858;42.714;23.180;2023-03-25T08:45:52;93944.94;;;24.32;34.40
21395;BME280;10858;42.714;23.180;2023-03-25T08:48:18;93944.50;;;22.96;38.96
21395;BME280;10858;42.714;23.180;2023-03-25T08:50:45;93936.09;;;22.48;38.47
21395;BME280;10858;42.714;23.180;2023-03-25T08:53:11;93941.34;;;22.74;38.62
21395;BME280;10858;42.714;23.180;2023-03-25T08:55:37;93948.00;;;22.40;37.62
21395;BME280;10858;42.714;23.180;2023-03-25T08:58:04;93940.63;;;21.65;39.22
21395;BME280;10858;42.714;23.180;2023-03-25T09:00:34;93936.00;;;22.30;39.12
21395;BME280;10858;42.714;23.180;2023-03-25T09:03:01;93920.88;;;23.34;37.29
21395;BME280;10858;42.714;23.180;2023-03-25T09:05:27;93923.72;;;24.11;38.10
21395;BME280;10858;42.714;23.180;2023-03-25T09:07:54;93921.72;;;24.66;35.07
21395;BME280;10858;42.714;23.180;2023-03-25T09:10:20;93930.28;;;23.67;37.42
21395;BME280;10858;42.714;23.180;2023-03-25T09:12:46;93924.28;;;22.73;37.19
21395;BME280;10858;42.714;23.180;2023-03-25T09:15:13;93926.91;;;21.86;39.91
21395;BME280;10858;42.714;23.180;2023-03-25T09:17:39;93926.13;;;22.11;39.69
21395;BME280;10858;42.714;23.180;2023-03-25T09:20:07;93923.44;;;22.48;38.21
21395;BME280;10858;42.714;23.180;2023-03-25T09:22:35;93920.38;;;22.38;38.36
21395;BME280;10858;42.714;23.180;2023-03-25T09:25:01;93919.88;;;22.79;38.81
21395;BME280;10858;42.714;23.180;2023-03-25T09:27:28;93918.13;;;22.66;37.74
21395;BME280;10858;42.714;23.180;2023-03-25T09:29:54;93915.81;;;23.37;36.89
21395;BME280;10858;42.714;23.180;2023-03-25T09:32:20;93919.72;;;24.32;36.40
21395;BME280;10858;42.714;23.180;2023-03-25T09:34:47;93911.34;;;25.39;33.98
21395;BME280;10858;42.714;23.180;2023-03-25T09:37:13;93909.34;;;25.46;33.62
21395;BME280;10858;42.714;23.180;2023-03-25T09:39:40;93903.78;;;25.06;33.91
21395;BME280;10858;42.714;23.180;2023-03-25T09:50:49;93893.69;;;26.56;29.52
21395;BME280;10858;42.714;23.180;2023-03-25T09:56:13;93887.44;;;27.17;29.77
21395;BME280;10858;42.714;23.180;2023-03-25T09:58:53;93885.13;;;27.42;28.44
21395;BME280;10858;42.714;23.180;2023-03-25T10:01:24;93883.97;;;27.05;29.11
21395;BME280;10858;42.714;23.180;2023-03-25T10:12:43;93868.44;;;25.76;29.74
21395;BME280;10858;42.714;23.180;2023-03-25T10:21:15;93845.56;;;24.79;31.29
21395;BME280;10858;42.714;23.180;2023-03-25T10:23:48;93844.59;;;25.31;30.59
21395;BME280;10858;42.714;23.180;2023-03-25T10:26:23;93846.16;;;25.51;32.20
21395;BME280;10858;42.714;23.180;2023-03-25T10:28:59;93839.66;;;25.52;29.55
21395;BME280;10858;42.714;23.180;2023-03-25T10:31:32;93836.91;;;27.42;28.21
21395;BME280;10858;42.714;23.180;2023-03-25T10:34:16;93830.03;;;28.75;26.82
21395;BME280;10858;42.714;23.180;2023-03-25T10:36:46;93839.31;;;30.36;23.67
21395;BME280;10858;42.714;23.180;2023-03-25T10:39:19;93830.13;;;31.22;22.88
21395;BME280;10858;42.714;23.180;2023-03-25T10:41:58;93824.53;;;31.98;20.90
21395;BME280;10858;42.714;23.180;2023-03-25T10:44:26;93821.25;;;30.40;22.58
21395;BME280;10858;42.714;23.180;2023-03-25T10:47:05;93822.44;;;29.13;24.37
21395;BME280;10858;42.714;23.180;2023-03-25T10:49:33;93823.91;;;28.58;25.36
21395;BME280;10858;42.714;23.180;2023-03-25T10:52:02;93816.00;;;27.48;26.55
21395;BME280;10858;42.714;23.180;2023-03-25T10:54:38;93812.13;;;27.44;25.86
21395;BME280;10858;42.714;23.180;2023-03-25T10:57:08;93808.28;;;27.23;26.19
21395;BME280;10858;42.714;23.180;2023-03-25T10:59:44;93800.47;;;27.48;26.89
21395;BME280;10858;42.714;23.180;2023-03-25T11:02:20;93797.66;;;28.56;24.18
21395;BME280;10858;42.714;23.180;2023-03-25T11:04:51;93791.09;;;30.35;22.83
21395;BME280;10858;42.714;23.180;2023-03-25T11:07:30;93791.19;;;29.78;22.56
21395;BME280;10858;42.714;23.180;2023-03-25T11:10:30;93787.09;;;27.90;24.45
21395;BME280;10858;42.714;23.180;2023-03-25T11:12:57;93780.47;;;27.21;24.40
21395;BME280;10858;42.714;23.180;2023-03-25T11:15:34;93781.19;;;26.95;26.04
21395;BME280;10858;42.714;23.180;2023-03-25T11:18:18;93774.84;;;26.89;26.38
21395;BME280;10858;42.714;23.180;2023-03-25T11:20:49;93780.59;;;26.76;25.78
21395;BME280;10858;42.714;23.180;2023-03-25T11:23:34;93782.25;;;29.09;23.98
21395;BME280;10858;42.714;23.180;2023-03-25T11:26:27;93772.19;;;29.56;22.46
21395;BME280;10858;42.714;23.180;2023-03-25T11:31:36;93757.94;;;28.44;23.87
21395;BME280;10858;42.714;23.180;2023-03-25T11:34:16;93762.97;;;26.79;26.03
21395;BME280;10858;42.714;23.180;2023-03-25T11:41:52;93759.13;;;23.59;28.73
21395;BME280;10858;42.714;23.180;2023-03-25T11:44:26;93764.16;;;23.74;30.41
21395;BME280;10858;42.714;23.180;2023-03-25T11:47:02;93758.00;;;24.61;30.20
21395;BME280;10858;42.714;23.180;2023-03-25T11:49:32;93757.97;;;24.37;29.26
21395;BME280;10858;42.714;23.180;2023-03-25T11:52:08;93751.31;;;24.75;28.88
21395;BME280;10858;42.714;23.180;2023-03-25T11:54:38;93745.97;;;24.45;28.49
21395;BME280;10858;42.714;23.180;2023-03-25T11:57:15;93740.31;;;23.52;31.37
21395;BME280;10858;42.714;23.180;2023-03-25T11:59:45;93742.41;;;23.80;29.59
21395;BME280;10858;42.714;23.180;2023-03-25T12:02:37;93740.81;;;23.25;30.01
21395;BME280;10858;42.714;23.180;2023-03-25T12:07:48;93738.53;;;22.92;30.74
21395;BME280;10858;42.714;23.180;2023-03-25T12:10:52;93734.03;;;23.04;30.81
21395;BME280;10858;42.714;23.180;2023-03-25T12:16:43;93730.13;;;23.00;30.95
21395;BME280;10858;42.714;23.180;2023-03-25T12:19:41;93727.88;;;23.45;31.16
21395;BME280;10858;42.714;23.180;2023-03-25T12:30:44;93737.81;;;23.81;29.46
21395;BME280;10858;42.714;23.180;2023-03-25T12:33:44;93742.13;;;23.70;29.19
21395;BME280;10858;42.714;23.180;2023-03-25T12:36:58;93730.53;;;23.33;30.17
21395;BME280;10858;42.714;23.180;2023-03-25T12:42:24;93718.81;;;23.03;30.18
21395;BME280;10858;42.714;23.180;2023-03-25T12:47:42;93717.44;;;22.83;31.56
21395;BME280;10858;42.714;23.180;2023-03-25T13:06:59;93712.91;;;22.34;32.69
21395;BME280;10858;42.714;23.180;2023-03-25T13:09:41;93715.22;;;22.91;32.07
21395;BME280;10858;42.714;23.180;2023-03-25T13:17:39;93716.88;;;22.07;32.70
21395;BME280;10858;42.714;23.180;2023-03-25T13:20:09;93715.34;;;21.61;33.00
21395;BME280;10858;42.714;23.180;2023-03-25T13:22:42;93726.28;;;20.84;33.31
21395;BME280;10858;42.714;23.180;2023-03-25T13:25:25;93726.81;;;20.55;35.21
21395;BME280;10858;42.714;23.180;2023-03-25T13:27:54;93737.63;;;20.22;35.18
21395;BME280;10858;42.714;23.180;2023-03-25T13:30:27;93739.28;;;19.91;36.79
21395;BME280;10858;42.714;23.180;2023-03-25T13:33:02;93743.84;;;20.10;35.57
21395;BME280;10858;42.714;23.180;2023-03-25T13:36:07;93749.44;;;20.02;36.55
21395;BME280;10858;42.714;23.180;2023-03-25T13:38:45;93754.41;;;19.98;36.96
21395;BME280;10858;42.714;23.180;2023-03-25T13:41:25;93759.53;;;19.41;39.15
21395;BME280;10858;42.714;23.180;2023-03-25T13:44:24;93768.91;;;17.80;45.70
21395;BME280;10858;42.714;23.180;2023-03-25T13:50:02;93768.50;;;17.20;47.88
21395;BME280;10858;42.714;23.180;2023-03-25T13:52:35;93769.28;;;16.99;49.82
21395;BME280;10858;42.714;23.180;2023-03-25T13:55:20;93766.50;;;17.08;54.47
21395;BME280;10858;42.714;23.180;2023-03-25T13:58:10;93760.81;;;16.81;55.61
21395;BME280;10858;42.714;23.180;2023-03-25T14:11:45;93764.00;;;16.70;58.55
21395;BME280;10858;42.714;23.180;2023-03-25T14:14:20;93744.06;;;16.58;60.87
21395;BME280;10858;42.714;23.180;2023-03-25T14:16:56;93741.31;;;16.37;61.32
21395;BME280;10858;42.714;23.180;2023-03-25T14:19:35;93724.16;;;16.17;63.04
21395;BME280;10858;42.714;23.180;2023-03-25T14:22:15;93706.34;;;15.95;62.65
21395;BME280;10858;42.714;23.180;2023-03-25T14:24:43;93691.75;;;16.12;64.15
21395;BME280;10858;42.714;23.180;2023-03-25T14:27:31;93691.38;;;16.15;68.49
21395;BME280;10858;42.714;23.180;2023-03-25T14:30:04;93683.44;;;16.07;65.00
21395;BME280;10858;42.714;23.180;2023-03-25T14:32:41;93694.22;;;16.28;63.20
21395;BME280;10858;42.714;23.180;2023-03-25T14:43:30;93672.06;;;16.63;61.85
21395;BME280;10858;42.714;23.180;2023-03-25T14:46:16;93677.41;;;16.63;62.19
21395;BME280;10858;42.714;23.180;2023-03-25T14:48:52;93669.38;;;16.84;61.73
21395;BME280;10858;42.714;23.180;2023-03-25T14:51:43;93660.47;;;16.98;61.02
21395;BME280;10858;42.714;23.180;2023-03-25T14:54:29;93668.13;;;17.23;60.28
21395;BME280;10858;42.714;23.180;2023-03-25T14:59:36;93660.75;;;17.80;58.03
21395;BME280;10858;42.714;23.180;2023-03-25T15:02:19;93658.38;;;17.92;57.75
21395;BME280;10858;42.714;23.180;2023-03-25T15:04:52;93647.28;;;18.08;55.13
21395;BME280;10858;42.714;23.180;2023-03-25T15:07:39;93655.91;;;17.97;55.67
21395;BME280;10858;42.714;23.180;2023-03-25T15:10:13;93657.50;;;17.84;56.40
21395;BME280;10858;42.714;23.180;2023-03-25T15:12:47;93651.75;;;17.60;55.69
21395;BME280;10858;42.714;23.180;2023-03-25T15:21:03;93637.53;;;17.66;55.68
21395;BME280;10858;42.714;23.180;2023-03-25T15:23:46;93639.06;;;17.75;56.97
21395;BME280;10858;42.714;23.180;2023-03-25T15:40:28;93638.00;;;18.44;55.20
21395;BME280;10858;42.714;23.180;2023-03-25T15:57:25;93635.03;;;17.92;56.96
21395;BME280;10858;42.714;23.180;2023-03-25T16:00:23;93638.91;;;17.83;57.59
21395;BME280;10858;42.714;23.180;2023-03-25T16:03:03;93633.22;;;17.44;57.85
21395;BME280;10858;42.714;23.180;2023-03-25T16:05:37;93623.50;;;17.64;57.12
21395;BME280;10858;42.714;23.180;2023-03-25T16:08:10;93629.63;;;17.51;58.15
21395;BME280;10858;42.714;23.180;2023-03-25T16:10:37;93628.81;;;17.85;57.16
21395;BME280;10858;42.714;23.180;2023-03-25T16:13:08;93621.84;;;17.63;58.36